Time;durP1;ratioP1;P1;durP2;ratioP2;P2;SDS_P1;SDS_P2;PMS_P1;PMS_P2;Temp;Humidity;BMP_temperature;BMP_pressure;BME280_temperature;BME280_humidity;BME280_pressure;Samples;Min_cycle;Max_cycle;Signal;HPM_P1;HPM_P2
2020/12/15 00:03:59;;;;;;;6.65;1.25;;;11.80;83.00;;;;;;4965747;28;80487;-72
2020/12/15 00:06:49;;;;;;;5.38;1.52;;;11.70;83.10;;;;;;4965027;28;81599;-73
2020/12/15 00:09:24;;;;;;;2.13;1.00;;;11.70;83.10;;;;;;4965142;28;82635;-73
2020/12/15 00:12:07;;;;;;;4.15;1.27;;;11.70;83.10;;;;;;4924498;28;80538;-72
2020/12/15 00:15:06;;;;;;;2.47;0.85;;;11.70;83.00;;;;;;4981383;28;80834;-72
2020/12/15 00:18:01;;;;;;;4.80;1.33;;;11.60;83.00;;;;;;4965426;28;80756;-72
2020/12/15 00:20:53;;;;;;;5.63;1.55;;;11.60;82.90;;;;;;4921146;28;81413;-75
2020/12/15 00:23:41;;;;;;;3.08;1.08;;;11.70;82.80;;;;;;4961265;28;80929;-73
2020/12/15 00:26:36;;;;;;;7.55;1.05;;;11.70;82.70;;;;;;4964615;28;82215;-74
2020/12/15 00:29:23;;;;;;;5.28;1.30;;;11.70;82.50;;;;;;4964988;28;80424;-75
2020/12/15 00:31:59;;;;;;;4.88;1.15;;;11.70;82.50;;;;;;4948744;28;82953;-75
2020/12/15 00:34:47;;;;;;;3.08;0.93;;;11.80;82.50;;;;;;4948889;28;82970;-76
2020/12/15 00:37:20;;;;;;;11.50;1.85;;;11.80;82.50;;;;;;4951797;28;80269;-75
2020/12/15 00:40:09;;;;;;;5.70;0.63;;;11.80;82.50;;;;;;4976684;28;80782;-78
2020/12/15 00:46:04;;;;;;;4.93;1.50;;;11.80;82.50;;;;;;5047650;28;80024;-74
2020/12/15 00:49:19;;;;;;;3.40;0.80;;;11.80;82.50;;;;;;5028201;28;80757;-73
2020/12/15 00:51:58;;;;;;;8.65;2.28;;;11.70;82.50;;;;;;4943052;28;80783;-74
2020/12/15 00:55:13;;;;;;;2.72;1.13;;;11.70;82.90;;;;;;4945338;28;81397;-73
2020/12/15 01:01:00;;;;;;;6.25;1.10;;;11.50;82.80;;;;;;4866032;29;80583;-75
2020/12/15 01:03:40;;;;;;;4.13;0.85;;;11.40;82.90;;;;;;4948880;28;79953;-74
2020/12/15 01:06:19;;;;;;;3.80;1.00;;;11.40;82.90;;;;;;4958469;28;81239;-73
2020/12/15 01:08:52;;;;;;;2.05;0.35;;;11.40;82.80;;;;;;4931632;28;80415;-73
2020/12/15 01:11:31;;;;;;;2.00;0.63;;;11.40;82.50;;;;;;4964725;28;80422;-73
2020/12/15 01:14:07;;;;;;;7.97;0.60;;;11.40;82.10;;;;;;4952071;28;80466;-73
2020/12/15 01:16:37;;;;;;;2.90;0.50;;;11.30;81.50;;;;;;4963768;28;80439;-74
2020/12/15 01:19:27;;;;;;;2.97;0.45;;;11.30;81.30;;;;;;4967825;28;80997;-72
2020/12/15 01:22:43;;;;;;;5.40;0.70;;;11.30;80.90;;;;;;4967540;28;80179;-72
2020/12/15 01:25:25;;;;;;;2.25;0.30;;;11.30;80.90;;;;;;4914088;28;82785;-72
2020/12/15 01:28:22;;;;;;;1.37;0.33;;;11.20;81.00;;;;;;4915171;28;80746;-73
2020/12/15 01:31:03;;;;;;;2.22;0.32;;;11.20;80.90;;;;;;4947845;28;80767;-75
2020/12/15 01:33:44;;;;;;;1.23;0.25;;;11.10;80.90;;;;;;4933165;28;82966;-74
2020/12/15 01:36:35;;;;;;;4.78;1.02;;;11.10;81.10;;;;;;4941500;28;81128;-73
2020/12/15 01:39:07;;;;;;;3.33;1.00;;;11.00;81.20;;;;;;4948102;28;81481;-73
2020/12/15 01:41:59;;;;;;;3.03;0.85;;;11.00;81.30;;;;;;4909417;28;82250;-74
2020/12/15 01:44:48;;;;;;;2.60;0.50;;;11.00;81.20;;;;;;5005615;28;81645;-73
2020/12/15 01:47:25;;;;;;;2.08;0.65;;;10.90;81.40;;;;;;5007257;28;80726;-76
2020/12/15 01:50:35;;;;;;;1.30;0.30;;;11.00;81.30;;;;;;4982134;28;84011;-72
2020/12/15 01:54:00;;;;;;;3.10;0.60;;;11.10;80.90;;;;;;4969568;28;80853;-73
2020/12/15 01:56:37;;;;;;;1.33;0.22;;;11.10;81.00;;;;;;4967629;28;82916;-71
2020/12/15 01:59:09;;;;;;;4.15;0.90;;;11.10;80.90;;;;;;5001215;28;81210;-71
2020/12/15 02:02:07;;;;;;;5.47;0.45;;;11.20;80.60;;;;;;5004234;28;81797;-71
2020/12/15 02:04:52;;;;;;;1.48;0.75;;;11.30;80.40;;;;;;4990640;28;82406;-72
2020/12/15 02:07:34;;;;;;;3.10;0.55;;;11.40;80.40;;;;;;5006895;28;80936;-72
2020/12/15 02:13:56;;;;;;;3.65;0.95;;;11.30;80.30;;;;;;4966438;28;81945;-72
2020/12/15 02:16:51;;;;;;;3.60;0.73;;;11.30;80.20;;;;;;4942888;28;80492;-72
2020/12/15 02:19:26;;;;;;;2.13;0.60;;;11.20;80.30;;;;;;4949817;28;82798;-73
2020/12/15 02:22:21;;;;;;;1.65;0.60;;;11.20;80.50;;;;;;4971652;28;80527;-71
2020/12/15 02:25:34;;;;;;;5.05;0.70;;;11.20;80.50;;;;;;5045835;28;80604;-71
2020/12/15 02:29:04;;;;;;;3.05;0.85;;;11.20;80.80;;;;;;5045638;28;80593;-71
2020/12/15 02:31:37;;;;;;;2.33;0.45;;;11.00;81.00;;;;;;5039994;28;81025;-70
2020/12/15 02:34:22;;;;;;;2.55;1.00;;;11.00;81.20;;;;;;5043694;28;82030;-72
2020/12/15 02:37:32;;;;;;;1.42;0.70;;;11.00;81.30;;;;;;5047289;28;81223;-70
2020/12/15 02:40:13;;;;;;;3.42;0.80;;;11.00;81.40;;;;;;5048006;28;80105;-71
2020/12/15 02:42:49;;;;;;;1.35;0.50;;;10.90;81.60;;;;;;5030335;28;82924;-71
2020/12/15 02:45:32;;;;;;;5.90;0.95;;;10.80;81.90;;;;;;5013078;28;80246;-70
2020/12/15 02:48:04;;;;;;;1.85;0.43;;;10.80;82.10;;;;;;5048539;28;81766;-74
2020/12/15 02:51:15;;;;;;;3.03;0.95;;;10.70;82.30;;;;;;5044170;28;80597;-73
2020/12/15 02:54:17;;;;;;;3.15;0.77;;;10.60;82.30;;;;;;4946575;28;80604;-72
2020/12/15 02:57:13;;;;;;;2.05;0.68;;;10.50;82.60;;;;;;4946790;28;81276;-77
2020/12/15 02:59:58;;;;;;;1.58;0.30;;;10.40;82.90;;;;;;5028630;28;81197;-79
2020/12/15 03:02:37;;;;;;;3.67;0.85;;;10.40;83.20;;;;;;5024487;28;80698;-76
2020/12/15 03:05:17;;;;;;;2.10;0.50;;;10.30;83.30;;;;;;5039193;28;81484;-76
2020/12/15 03:07:51;;;;;;;2.22;0.80;;;10.30;83.40;;;;;;4981361;28;81944;-72
2020/12/15 03:10:45;;;;;;;1.55;0.65;;;10.30;83.50;;;;;;5047853;28;81163;-80
2020/12/15 03:13:35;;;;;;;2.17;0.68;;;10.30;83.40;;;;;;5032248;28;79967;-74
2020/12/15 03:16:15;;;;;;;3.72;0.60;;;10.20;83.50;;;;;;5024368;28;83956;-70
2020/12/15 03:18:50;;;;;;;2.28;1.25;;;10.20;83.50;;;;;;4993800;28;82301;-73
2020/12/15 03:21:35;;;;;;;1.33;0.60;;;10.30;83.40;;;;;;5047753;28;81449;-71
2020/12/15 03:25:10;;;;;;;;;;;;;;;;;;;;;
2020/12/15 03:30:47;;;;;;;2.00;0.80;;;10.40;83.20;;;;;;4960779;28;80394;-73
2020/12/15 03:33:41;;;;;;;6.47;1.13;;;10.30;83.30;;;;;;4948043;28;81149;-72
2020/12/15 03:36:34;;;;;;;1.73;0.80;;;10.30;83.40;;;;;;4900605;28;82619;-75
2020/12/15 03:39:36;;;;;;;4.45;0.88;;;10.30;83.50;;;;;;5030176;28;80777;-74
2020/12/15 03:42:23;;;;;;;3.38;1.10;;;10.30;83.50;;;;;;5023106;28;80575;-72
2020/12/15 03:48:32;;;;;;;5.68;1.40;;;10.40;83.40;;;;;;4984576;28;80374;-69
2020/12/15 03:54:04;;;;;;;1.83;0.70;;;10.40;83.50;;;;;;4972590;28;80601;-77
2020/12/15 03:56:41;;;;;;;2.08;0.50;;;10.40;83.30;;;;;;4965587;28;80880;-76
2020/12/15 04:02:35;;;;;;;2.22;0.88;;;10.60;82.80;;;;;;5043946;28;81341;-71
2020/12/15 04:05:19;;;;;;;3.38;1.15;;;10.60;82.80;;;;;;5046314;28;79965;-74
2020/12/15 04:08:10;;;;;;;5.40;1.52;;;10.50;82.70;;;;;;5047800;28;80727;-72
2020/12/15 04:10:51;;;;;;;3.20;1.52;;;10.50;82.60;;;;;;4983732;28;81901;-75
2020/12/15 04:13:52;;;;;;;2.80;1.30;;;10.50;82.80;;;;;;5048262;28;79780;-74
2020/12/15 04:16:49;;;;;;;3.28;1.27;;;10.50;82.80;;;;;;5044910;28;80718;-77
2020/12/15 04:19:24;;;;;;;4.30;0.95;;;10.40;82.90;;;;;;5010342;28;81210;-76
2020/12/15 04:22:13;;;;;;;4.68;0.85;;;10.30;82.90;;;;;;5047101;28;80351;-73
2020/12/15 04:25:01;;;;;;;3.20;1.27;;;10.30;83.00;;;;;;5044855;28;80077;-74
2020/12/15 04:27:54;;;;;;;3.70;0.70;;;10.30;83.00;;;;;;4963354;28;80682;-74
2020/12/15 04:30:37;;;;;;;3.42;0.60;;;10.20;82.90;;;;;;5047078;28;81110;-74
2020/12/15 04:33:20;;;;;;;3.47;0.80;;;10.20;82.80;;;;;;5043509;28;80672;-71
2020/12/15 04:36:05;;;;;;;1.83;0.63;;;10.20;82.70;;;;;;5011151;28;81037;-73
2020/12/15 04:38:48;;;;;;;4.60;1.45;;;10.10;82.60;;;;;;4992573;28;80913;-72
2020/12/15 04:41:38;;;;;;;3.03;0.70;;;10.10;82.60;;;;;;5027871;28;80081;-72
2020/12/15 04:44:12;;;;;;;8.05;1.13;;;10.10;82.60;;;;;;5028276;28;80882;-72
2020/12/15 04:50:53;;;;;;;4.72;0.90;;;10.20;82.20;;;;;;4943730;28;80359;-71
2020/12/15 04:54:01;;;;;;;3.38;0.88;;;10.20;82.30;;;;;;4941081;28;80097;-69
2020/12/15 05:00:24;;;;;;;5.57;1.05;;;10.10;82.50;;;;;;4906347;28;79956;-74
2020/12/15 05:03:08;;;;;;;2.50;1.00;;;9.90;82.60;;;;;;4849533;29;80214;-73
2020/12/15 05:06:18;;;;;;;5.00;0.82;;;9.90;82.70;;;;;;4849842;29;82810;-74
2020/12/15 05:09:08;;;;;;;6.00;1.50;;;9.90;82.80;;;;;;4925264;28;79951;-72
2020/12/15 05:11:45;;;;;;;6.03;1.52;;;9.80;82.90;;;;;;4942620;28;80414;-71
2020/12/15 05:17:39;;;;;;;5.45;1.33;;;9.70;82.70;;;;;;4868051;29;80703;-70
2020/12/15 05:20:43;;;;;;;6.95;1.13;;;9.70;82.40;;;;;;4853655;29;80029;-72
2020/12/15 05:23:28;;;;;;;7.00;1.35;;;9.70;82.10;;;;;;4867561;29;81256;-71
2020/12/15 05:29:46;;;;;;;3.63;0.82;;;9.60;82.20;;;;;;4944387;28;81196;-75
2020/12/15 05:32:29;;;;;;;4.55;0.73;;;9.60;82.50;;;;;;4931433;28;80649;-75
2020/12/15 05:35:44;;;;;;;3.10;1.17;;;9.60;82.60;;;;;;4998794;28;79878;-74
2020/12/15 05:41:43;;;;;;;3.33;1.00;;;9.50;82.90;;;;;;5031883;28;80221;-75
2020/12/15 05:48:36;;;;;;;5.93;0.90;;;9.40;83.10;;;;;;5028104;28;80450;-75
2020/12/15 05:51:43;;;;;;;5.10;1.30;;;9.40;83.10;;;;;;5037012;28;80555;-74
2020/12/15 05:54:27;;;;;;;4.13;1.23;;;9.40;83.20;;;;;;5027729;28;80857;-73
2020/12/15 05:58:00;;;;;;;3.97;1.10;;;9.40;83.20;;;;;;4998444;27;79883;-75
2020/12/15 06:00:48;;;;;;;3.55;1.35;;;9.40;83.00;;;;;;4949038;28;81325;-79
2020/12/15 06:03:57;;;;;;;4.40;1.23;;;9.30;83.20;;;;;;4948262;28;80304;-76
2020/12/15 06:06:46;;;;;;;3.60;1.35;;;9.30;83.10;;;;;;4920487;28;80983;-77
2020/12/15 06:09:44;;;;;;;3.97;1.35;;;9.30;83.10;;;;;;4931527;28;80214;-79
2020/12/15 06:12:44;;;;;;;4.13;1.50;;;9.30;82.90;;;;;;5008185;28;81843;-78
2020/12/15 06:15:32;;;;;;;8.00;1.60;;;9.30;83.10;;;;;;5048513;27;81974;-77
2020/12/15 06:18:10;;;;;;;3.47;1.10;;;9.30;82.90;;;;;;5017311;28;79950;-77
2020/12/15 06:21:01;;;;;;;3.83;1.48;;;9.30;82.90;;;;;;5048014;28;80417;-73
2020/12/15 06:24:30;;;;;;;8.27;2.47;;;9.30;82.80;;;;;;5041203;28;79844;-72
2020/12/15 06:27:17;;;;;;;3.78;1.75;;;9.40;82.70;;;;;;5048247;28;80589;-72
2020/12/15 06:30:13;;;;;;;3.92;1.83;;;9.30;82.80;;;;;;5027864;28;79900;-71
2020/12/15 06:33:04;;;;;;;9.27;1.90;;;9.40;82.70;;;;;;5046486;28;80543;-72
2020/12/15 06:35:33;;;;;;;5.95;1.88;;;9.40;82.50;;;;;;5012633;28;79968;-70
2020/12/15 06:38:17;;;;;;;3.72;1.20;;;9.40;82.40;;;;;;5027369;28;81173;-70
2020/12/15 06:41:11;;;;;;;6.95;2.10;;;9.50;82.20;;;;;;5028502;28;81928;-65
2020/12/15 06:43:44;;;;;;;3.85;1.15;;;9.50;82.10;;;;;;4960956;28;80360;-66
2020/12/15 06:46:12;;;;;;;6.10;1.88;;;9.50;82.00;;;;;;5032071;28;80130;-67
2020/12/15 06:48:56;;;;;;;7.65;2.22;;;9.50;82.00;;;;;;5030012;28;81653;-67
2020/12/15 06:51:34;;;;;;;6.57;1.75;;;9.50;82.10;;;;;;5048729;28;79931;-67
2020/12/15 06:54:31;;;;;;;4.50;1.98;;;9.40;82.20;;;;;;5030531;28;80445;-69
2020/12/15 06:57:45;;;;;;;6.90;2.15;;;9.40;82.30;;;;;;5048416;28;80705;-78
2020/12/15 07:00:52;;;;;;;5.13;1.90;;;9.40;82.30;;;;;;5010295;27;80851;-68
2020/12/15 07:04:01;;;;;;;4.20;1.67;;;9.40;82.30;;;;;;5028986;28;80597;-74
2020/12/15 07:10:12;;;;;;;6.93;1.88;;;9.40;82.30;;;;;;5023711;28;80509;-72
2020/12/15 07:12:49;;;;;;;4.32;1.48;;;9.40;82.30;;;;;;4990328;28;81165;-73
2020/12/15 07:15:25;;;;;;;6.22;2.17;;;9.40;82.00;;;;;;5026009;28;80799;-70
2020/12/15 07:18:34;;;;;;;3.35;1.20;;;9.50;81.70;;;;;;5048187;28;80410;-74
2020/12/15 07:21:04;;;;;;;3.85;1.02;;;9.50;81.30;;;;;;5028677;28;80891;-72
2020/12/15 07:23:46;;;;;;;8.52;1.50;;;9.40;81.30;;;;;;5047858;28;80686;-62
2020/12/15 07:26:20;;;;;;;2.63;1.33;;;9.40;81.20;;;;;;4994573;28;81128;-73
2020/12/15 07:29:10;;;;;;;3.53;1.25;;;9.40;81.30;;;;;;5027871;28;79966;-73
2020/12/15 07:31:55;;;;;;;4.60;1.60;;;9.40;81.10;;;;;;5010049;28;80058;-74
2020/12/15 07:34:32;;;;;;;5.55;1.17;;;9.40;81.20;;;;;;5026261;28;79965;-71
2020/12/15 07:37:14;;;;;;;4.07;1.15;;;9.40;81.20;;;;;;4995724;28;81051;-67
2020/12/15 07:39:52;;;;;;;5.40;1.08;;;9.40;81.10;;;;;;5029694;28;80257;-73
2020/12/15 07:42:50;;;;;;;3.53;1.05;;;9.30;81.00;;;;;;5010158;28;80664;-73
2020/12/15 07:49:59;;;;;;;5.50;1.00;;;9.40;80.90;;;;;;4903588;28;80076;-77
2020/12/15 07:53:06;;;;;;;6.35;1.50;;;9.40;80.80;;;;;;4872187;28;80494;-74
2020/12/15 07:56:10;;;;;;;9.00;1.92;;;9.40;80.80;;;;;;4899662;28;80000;-75
2020/12/15 07:58:50;;;;;;;4.65;1.80;;;9.40;80.90;;;;;;4850543;29;80498;-76
2020/12/15 08:01:49;;;;;;;6.68;2.08;;;9.40;80.90;;;;;;4882711;28;83092;-77
2020/12/15 08:04:52;;;;;;;6.70;1.70;;;9.40;80.80;;;;;;4939141;28;80405;-78
2020/12/15 08:07:38;;;;;;;7.15;1.45;;;9.40;80.80;;;;;;4886171;28;83067;-78
2020/12/15 08:11:04;;;;;;;3.78;1.67;;;9.40;81.00;;;;;;4904383;28;80737;-78
2020/12/15 08:13:40;;;;;;;5.57;1.30;;;9.40;80.90;;;;;;4888633;28;79942;-79
2020/12/15 08:16:29;;;;;;;7.00;2.03;;;9.40;81.00;;;;;;4895360;28;80626;-77
2020/12/15 08:19:11;;;;;;;6.00;1.27;;;9.30;81.20;;;;;;5006246;28;80744;-75
2020/12/15 08:22:06;;;;;;;9.38;1.50;;;9.40;81.20;;;;;;5010981;28;80520;-74
2020/12/15 08:24:57;;;;;;;4.78;1.30;;;9.40;81.10;;;;;;5011109;28;81947;-75
2020/12/15 08:27:40;;;;;;;7.10;1.55;;;9.50;80.80;;;;;;5002265;28;82040;-68
2020/12/15 08:30:33;;;;;;;5.65;1.67;;;9.60;80.50;;;;;;5036759;28;80750;-72
2020/12/15 08:33:19;;;;;;;9.60;1.58;;;9.70;80.30;;;;;;5047277;28;80568;-64
2020/12/15 08:35:56;;;;;;;9.48;1.83;;;9.90;79.90;;;;;;5031049;28;80661;-67
2020/12/15 08:38:48;;;;;;;5.13;1.33;;;10.00;79.20;;;;;;5045048;28;80339;-66
2020/12/15 08:42:00;;;;;;;6.63;1.42;;;10.20;78.90;;;;;;5031589;28;79908;-64
2020/12/15 08:44:41;;;;;;;5.53;1.25;;;10.10;78.80;;;;;;5028122;28;80754;-67
2020/12/15 08:47:13;;;;;;;7.63;1.35;;;10.00;78.90;;;;;;5012531;28;80583;-68
2020/12/15 08:49:55;;;;;;;5.60;1.58;;;10.00;79.10;;;;;;5046774;28;80796;-72
2020/12/15 08:53:00;;;;;;;5.32;1.20;;;10.10;79.00;;;;;;5045446;28;80366;-64
2020/12/15 08:55:33;;;;;;;7.38;1.10;;;10.20;78.50;;;;;;4984001;28;80741;-63
2020/12/15 08:58:58;;;;;;;4.85;1.05;;;10.30;78.10;;;;;;4985602;28;80553;-67
2020/12/15 09:01:33;;;;;;;6.80;1.30;;;10.40;78.00;;;;;;4970142;28;80594;-66
2020/12/15 09:04:33;;;;;;;4.18;1.20;;;10.40;77.60;;;;;;4984222;28;79841;-68
2020/12/15 09:10:46;;;;;;;4.40;1.20;;;10.30;77.40;;;;;;4991510;28;79917;-68
2020/12/15 09:13:38;;;;;;;5.68;1.55;;;10.30;77.60;;;;;;5045608;28;80442;-70
2020/12/15 09:16:42;;;;;;;4.97;1.20;;;10.40;77.70;;;;;;4998794;28;81458;-66
2020/12/15 09:19:21;;;;;;;;;;;10.70;77.00;;;;;;4970390;28;80667;-67
2020/12/15 09:22:27;;;;;;;6.40;1.90;;;10.90;76.10;;;;;;5009657;28;75584;-74
2020/12/15 09:25:01;;;;;;;5.72;1.17;;;11.30;74.60;;;;;;5003727;28;79890;-66
2020/12/15 09:27:44;;;;;;;5.07;2.03;;;11.50;73.30;;;;;;5003095;28;80679;-67
2020/12/15 09:30:45;;;;;;;3.90;1.08;;;11.40;73.20;;;;;;4987258;28;80337;-68
2020/12/15 09:33:37;;;;;;;5.50;1.35;;;11.40;73.00;;;;;;5001374;28;80428;-70
2020/12/15 09:36:21;;;;;;;6.32;1.45;;;11.20;73.10;;;;;;5002602;28;80387;-68
2020/12/15 09:39:15;;;;;;;4.20;1.15;;;11.40;72.80;;;;;;5005217;28;80760;-68
2020/12/15 09:42:19;;;;;;;9.10;1.70;;;11.90;71.00;;;;;;4990406;28;79987;-68
2020/12/15 09:44:53;;;;;;;4.00;0.95;;;12.50;68.60;;;;;;4987716;28;80860;-68
2020/12/15 09:47:21;;;;;;;8.38;2.33;;;12.60;68.00;;;;;;5029062;28;80921;-68
2020/12/15 09:50:20;;;;;;;5.60;1.15;;;12.50;68.30;;;;;;5049648;28;81065;-69
2020/12/15 09:53:08;;;;;;;2.67;1.13;;;12.60;67.80;;;;;;5024565;28;82837;-71
2020/12/15 09:55:44;;;;;;;4.20;1.67;;;12.90;67.10;;;;;;5030164;28;81093;-68
2020/12/15 09:58:21;;;;;;;2.85;1.00;;;13.20;65.80;;;;;;5049608;28;80686;-71
2020/12/15 10:01:12;;;;;;;6.32;1.52;;;13.70;64.00;;;;;;5026733;28;80974;-71
2020/12/15 10:04:00;;;;;;;6.57;1.58;;;14.10;62.70;;;;;;5031331;28;82489;-72
2020/12/15 10:06:44;;;;;;;2.83;1.50;;;14.90;60.50;;;;;;5015281;28;81083;-71
2020/12/15 10:09:36;;;;;;;3.30;1.20;;;15.40;58.10;;;;;;5046926;28;79885;-74
2020/12/15 10:12:30;;;;;;;5.47;1.50;;;15.90;56.70;;;;;;5049210;28;80790;-72
2020/12/15 10:15:44;;;;;;;4.78;1.05;;;16.00;55.50;;;;;;5046390;28;80309;-71
2020/12/15 10:18:19;;;;;;;7.78;1.30;;;15.80;56.50;;;;;;5050082;28;80715;-71
2020/12/15 10:21:22;;;;;;;5.65;1.38;;;17.20;53.00;;;;;;5050008;28;80909;-70
2020/12/15 10:24:13;;;;;;;5.65;1.48;;;18.70;48.30;;;;;;5049651;28;80569;-67
2020/12/15 10:27:00;;;;;;;8.07;2.67;;;18.90;47.00;;;;;;5048065;28;80463;-73
2020/12/15 10:29:41;;;;;;;5.85;1.65;;;19.00;47.00;;;;;;5029343;28;82035;-69
2020/12/15 10:33:09;;;;;;;8.88;1.98;;;20.00;45.30;;;;;;5048990;28;80458;-70
2020/12/15 10:35:42;;;;;;;6.78;1.27;;;20.40;44.30;;;;;;4947217;28;80581;-72
2020/12/15 10:38:59;;;;;;;5.60;1.17;;;20.20;44.20;;;;;;4929872;28;80873;-71
2020/12/15 10:42:08;;;;;;;4.87;1.23;;;20.90;42.50;;;;;;4889487;28;80422;-72
2020/12/15 10:48:01;;;;;;;2.58;1.00;;;18.50;46.00;;;;;;4955868;28;80554;-68
2020/12/15 10:53:56;;;;;;;3.72;1.25;;;18.40;46.60;;;;;;4959656;28;80668;-69
2020/12/15 10:56:36;;;;;;;3.75;1.00;;;19.80;43.10;;;;;;4966908;28;80243;-67
2020/12/15 10:59:27;;;;;;;3.45;1.30;;;20.40;42.50;;;;;;5014086;28;80948;-69
2020/12/15 11:02:09;;;;;;;4.03;0.90;;;21.30;40.50;;;;;;5029240;28;79982;-66
2020/12/15 11:05:11;;;;;;;5.60;0.75;;;21.50;39.80;;;;;;4996534;28;80763;-70
2020/12/15 11:07:47;;;;;;;6.50;1.20;;;19.90;41.70;;;;;;4941071;28;80119;-71
2020/12/15 11:10:47;;;;;;;4.20;0.80;;;18.20;46.20;;;;;;5047651;28;80619;-70
2020/12/15 11:13:30;;;;;;;4.10;1.67;;;16.30;49.40;;;;;;5027687;28;81664;-67
2020/12/15 11:16:11;;;;;;;;;;;15.20;53.00;;;;;;5019752;28;80740;-67
2020/12/15 11:19:09;;;;;;;3.10;0.80;;;15.20;52.80;;;;;;5021624;28;80927;-72
2020/12/15 11:25:15;;;;;;;5.32;0.70;;;15.30;53.00;;;;;;4996326;28;80117;-68
2020/12/15 11:28:29;;;;;;;7.22;1.45;;;14.60;54.70;;;;;;5029396;28;83030;-68
2020/12/15 11:38:00;;;;;;;4.68;0.60;;;17.30;48.60;;;;;;4968024;28;80024;-67
2020/12/15 11:40:39;;;;;;;2.67;0.60;;;16.90;49.00;;;;;;4968788;28;80777;-69
2020/12/15 11:43:20;;;;;;;5.97;1.02;;;18.40;46.00;;;;;;4968377;28;80953;-72
2020/12/15 11:46:06;;;;;;;4.03;0.80;;;19.50;43.60;;;;;;4983279;28;80876;-71
2020/12/15 11:49:14;;;;;;;5.00;1.33;;;19.80;42.30;;;;;;4968415;28;80068;-71
2020/12/15 11:51:50;;;;;;;3.90;1.23;;;18.20;45.50;;;;;;4982578;28;80736;-71
2020/12/15 11:54:45;;;;;;;8.02;1.40;;;16.60;49.40;;;;;;5009353;28;80806;-71
2020/12/15 11:57:33;;;;;;;5.47;1.65;;;15.90;51.40;;;;;;4987211;28;83477;-68
2020/12/15 12:00:17;;;;;;;8.50;1.70;;;18.70;46.70;;;;;;4987693;28;80290;-68
2020/12/15 12:02:59;;;;;;;2.85;0.70;;;19.70;43.10;;;;;;4987397;28;80042;-70
2020/12/15 12:05:39;;;;;;;4.93;1.10;;;21.10;40.80;;;;;;5046285;28;80803;-69
2020/12/15 12:08:18;;;;;;;4.15;1.02;;;19.80;42.80;;;;;;5046300;28;80864;-70
2020/12/15 12:11:00;;;;;;;5.15;1.33;;;18.30;45.50;;;;;;5040872;28;80462;-72
2020/12/15 12:13:43;;;;;;;4.78;0.80;;;17.00;47.70;;;;;;5009448;28;82654;-71
2020/12/15 12:16:35;;;;;;;;;;;16.40;50.10;;;;;;5036401;28;80324;-72
2020/12/15 12:19:08;;;;;;;3.58;0.73;;;19.50;44.90;;;;;;5052592;28;75176;-67
2020/12/15 12:21:50;;;;;;;9.60;1.20;;;19.70;42.10;;;;;;5045374;28;79592;-71
2020/12/15 12:24:43;;;;;;;3.25;1.65;;;18.60;44.10;;;;;;4994317;28;80641;-70
2020/12/15 12:27:17;;;;;;;6.07;1.27;;;19.10;43.90;;;;;;5028498;28;82922;-73
2020/12/15 12:29:53;;;;;;;3.95;1.45;;;19.00;44.00;;;;;;5046518;28;80545;-70
2020/12/15 12:32:48;;;;;;;6.70;1.40;;;19.60;43.00;;;;;;5028329;28;79987;-70
2020/12/15 12:35:26;;;;;;;3.20;1.63;;;21.90;39.60;;;;;;5027931;28;80829;-67
2020/12/15 12:38:19;;;;;;;4.25;1.35;;;24.20;35.30;;;;;;5028781;28;80485;-70
2020/12/15 12:40:49;;;;;;;3.55;1.33;;;23.40;36.00;;;;;;5035382;28;80745;-70
2020/12/15 12:43:56;;;;;;;5.15;1.10;;;23.30;36.60;;;;;;5011134;28;82296;-68
2020/12/15 12:46:41;;;;;;;7.07;1.95;;;24.40;33.90;;;;;;5017512;28;81041;-70
2020/12/15 12:49:46;;;;;;;4.82;1.08;;;24.10;34.40;;;;;;5043710;28;80667;-68
2020/12/15 12:52:43;;;;;;;3.35;0.77;;;23.70;33.80;;;;;;5046345;28;80467;-68
2020/12/15 12:55:39;;;;;;;3.75;0.93;;;23.00;34.90;;;;;;5044499;28;80160;-67
2020/12/15 12:58:06;;;;;;;2.80;0.93;;;22.50;35.30;;;;;;5035615;28;80954;-66
2020/12/15 13:00:47;;;;;;;2.85;0.70;;;22.00;36.50;;;;;;5028739;28;82718;-70
2020/12/15 13:06:48;;;;;;;1.88;0.73;;;20.20;39.30;;;;;;5029147;27;80698;-73
2020/12/15 13:09:29;;;;;;;3.93;0.90;;;19.90;40.80;;;;;;5034520;28;81117;-74
2020/12/15 13:12:11;;;;;;;2.92;1.02;;;19.60;41.00;;;;;;5016691;28;82173;-71
2020/12/15 13:14:47;;;;;;;2.88;0.63;;;19.00;42.20;;;;;;5035176;28;83284;-74
2020/12/15 13:17:17;;;;;;;2.28;0.70;;;18.30;44.00;;;;;;5053699;28;79937;-70
2020/12/15 13:19:53;;;;;;;3.90;0.88;;;18.40;44.20;;;;;;5053637;28;80648;-68
2020/12/15 13:22:51;;;;;;;3.20;0.80;;;19.40;42.60;;;;;;5053570;28;80161;-69
2020/12/15 13:25:24;;;;;;;6.63;0.90;;;20.60;39.90;;;;;;5029559;28;81795;-70
2020/12/15 13:28:09;;;;;;;2.72;0.52;;;20.80;39.20;;;;;;5017133;28;80497;-71
2020/12/15 13:31:01;;;;;;;2.78;0.75;;;19.20;41.70;;;;;;5050341;28;80036;-70
2020/12/15 13:33:58;;;;;;;6.30;0.93;;;17.70;44.20;;;;;;5053440;28;81853;-71
2020/12/15 13:37:03;;;;;;;3.10;0.90;;;16.80;46.70;;;;;;4973797;28;81138;-73
2020/12/15 13:42:57;;;;;;;3.38;0.88;;;15.90;48.10;;;;;;4969975;28;80947;-70
2020/12/15 13:45:52;;;;;;;3.42;1.00;;;15.70;48.10;;;;;;4973463;28;80029;-70
2020/12/15 13:49:02;;;;;;;3.30;0.80;;;15.70;48.70;;;;;;4976684;28;81032;-69
2020/12/15 13:51:50;;;;;;;1.77;0.60;;;15.70;48.50;;;;;;4931591;28;80133;-68
2020/12/15 13:54:31;;;;;;;2.67;0.80;;;15.40;49.40;;;;;;4915202;28;80965;-71
2020/12/15 13:57:22;;;;;;;;;;;;;;;;;;;;;
2020/12/15 13:59:57;;;;;;;1.65;0.50;;;15.10;49.50;;;;;;4930598;28;109707;-70
2020/12/15 14:02:47;;;;;;;5.60;0.73;;;14.90;50.00;;;;;;4961631;28;80615;-72
2020/12/15 14:05:41;;;;;;;2.42;0.40;;;14.70;50.20;;;;;;4990701;28;80910;-72
2020/12/15 14:08:26;;;;;;;3.10;0.40;;;14.30;50.90;;;;;;4973700;28;81953;-71
2020/12/15 14:11:24;;;;;;;1.67;0.30;;;14.10;50.80;;;;;;4957159;28;80027;-71
2020/12/15 14:14:13;;;;;;;2.13;0.40;;;14.00;50.40;;;;;;5030439;28;79908;-67
2020/12/15 14:16:56;;;;;;;2.38;0.68;;;13.80;50.70;;;;;;5034438;28;82448;-71
2020/12/15 14:19:48;;;;;;;2.20;0.32;;;13.70;50.90;;;;;;5031451;28;82692;-72
2020/12/15 14:25:49;;;;;;;2.83;0.50;;;13.50;51.00;;;;;;5049159;28;79965;-76
2020/12/15 14:28:46;;;;;;;3.30;0.52;;;13.40;51.80;;;;;;5037772;28;79967;-69
2020/12/15 14:31:29;;;;;;;3.30;0.50;;;13.30;52.10;;;;;;5045710;28;80811;-72
2020/12/15 14:34:25;;;;;;;3.92;0.45;;;13.30;52.20;;;;;;5012646;28;79938;-70
2020/12/15 14:40:36;;;;;;;3.25;0.77;;;13.40;52.10;;;;;;4986542;28;80357;-71
2020/12/15 14:43:06;;;;;;;1.63;0.35;;;13.40;51.60;;;;;;5047914;28;80799;-71
2020/12/15 14:45:58;;;;;;;3.28;1.15;;;13.40;51.80;;;;;;5029190;28;81166;-72
2020/12/15 14:49:01;;;;;;;4.82;0.50;;;13.50;51.80;;;;;;5046813;28;80654;-68
2020/12/15 14:51:31;;;;;;;1.67;0.35;;;13.50;51.40;;;;;;5048915;28;80680;-74
2020/12/15 14:54:24;;;;;;;6.80;0.47;;;13.40;51.60;;;;;;5026720;28;80217;-72
2020/12/15 14:57:02;;;;;;;3.08;0.77;;;13.60;51.50;;;;;;5012945;28;83140;-73
2020/12/15 14:59:53;;;;;;;2.40;0.57;;;13.50;51.70;;;;;;5022273;28;80267;-74
2020/12/15 15:02:46;;;;;;;4.93;0.68;;;13.40;52.00;;;;;;5011803;28;80990;-76
2020/12/15 15:05:25;;;;;;;;;;;13.40;51.70;;;;;;5049221;28;80376;-69
2020/12/15 15:08:00;;;;;;;5.28;1.00;;;13.30;52.00;;;;;;5023748;28;75731;-70
2020/12/15 15:10:53;;;;;;;1.65;0.68;;;13.30;52.00;;;;;;5030771;28;80115;-71
2020/12/15 15:13:27;;;;;;;3.38;0.65;;;13.30;51.80;;;;;;5010611;28;80084;-67
2020/12/15 15:19:19;;;;;;;1.55;0.47;;;13.20;51.50;;;;;;4966840;28;81098;-71
2020/12/15 15:28:25;;;;;;;1.70;0.52;;;12.90;52.10;;;;;;4999115;28;80065;-70
2020/12/15 15:31:02;;;;;;;2.70;0.57;;;12.80;52.40;;;;;;5047672;28;79592;-72
2020/12/15 15:36:42;;;;;;;4.78;0.70;;;12.90;53.20;;;;;;5018891;28;80277;-70
2020/12/15 15:39:36;;;;;;;3.28;0.73;;;12.90;53.30;;;;;;5020383;28;80461;-67
2020/12/15 15:42:17;;;;;;;1.25;0.30;;;12.90;53.40;;;;;;4991627;28;80773;-70
2020/12/15 15:44:47;;;;;;;4.40;0.70;;;13.00;53.50;;;;;;5026059;28;80076;-67
2020/12/15 15:47:37;;;;;;;2.72;0.50;;;13.20;53.20;;;;;;5025158;28;79884;-72
2020/12/15 15:50:19;;;;;;;2.35;0.60;;;13.40;52.90;;;;;;4973498;28;80442;-71
2020/12/15 15:53:16;;;;;;;3.97;0.60;;;13.40;52.60;;;;;;5012764;28;80786;-69
2020/12/15 15:56:21;;;;;;;2.88;0.55;;;13.20;52.50;;;;;;5023800;28;81465;-70
2020/12/15 15:59:09;;;;;;;4.03;0.50;;;13.00;52.40;;;;;;5009463;28;81213;-70
2020/12/15 16:05:06;;;;;;;4.03;0.60;;;12.60;53.60;;;;;;4946664;28;80417;-70
2020/12/15 16:07:55;;;;;;;2.80;0.32;;;12.50;54.00;;;;;;4934668;28;80565;-72
2020/12/15 16:10:38;;;;;;;4.97;0.50;;;12.40;54.20;;;;;;4936047;28;82784;-70
2020/12/15 16:16:04;;;;;;;1.33;0.38;;;12.20;54.90;;;;;;4951122;28;80497;-63
2020/12/15 16:19:03;;;;;;;5.32;0.88;;;12.00;55.20;;;;;;4965126;28;82573;-68
2020/12/15 16:21:48;;;;;;;2.47;0.30;;;12.00;55.60;;;;;;4868294;29;80564;-66
2020/12/15 16:25:10;;;;;;;3.45;0.82;;;12.10;55.60;;;;;;4869336;28;80110;-70
2020/12/15 16:28:15;;;;;;;2.72;0.57;;;12.00;55.60;;;;;;4851480;28;82984;-66
2020/12/15 16:30:58;;;;;;;3.08;0.90;;;12.00;56.10;;;;;;4901612;28;79895;-69